Time;durP1;ratioP1;P1;durP2;ratioP2;P2;SDS_P1;SDS_P2;PMS_P1;PMS_P2;Temp;Humidity;BMP_temperature;BMP_pressure;BME280_temperature;BME280_humidity;BME280_pressure;Samples;Min_cycle;Max_cycle;Signal;HPM_P1;HPM_P2
2022/03/07 00:00:57;;;;;;;29.45;17.05;;;-1.60;99.90;;;;;;5078091;28;20047;-83
2022/03/07 00:03:25;;;;;;;26.80;17.80;;;-1.60;99.90;;;;;;5077694;28;20073;-84
2022/03/07 00:05:50;;;;;;;27.80;17.10;;;-1.60;99.90;;;;;;5076364;28;20039;-83
2022/03/07 00:08:16;;;;;;;25.52;16.40;;;-1.60;99.90;;;;;;5077155;28;20039;-83
2022/03/07 00:10:42;;;;;;;26.15;17.13;;;-1.70;99.90;;;;;;5078040;28;20110;-87
2022/03/07 00:13:07;;;;;;;28.17;16.63;;;-1.70;99.90;;;;;;5078627;28;20149;-83
2022/03/07 00:15:33;;;;;;;30.60;16.92;;;-1.80;99.90;;;;;;5096077;27;20431;-84
2022/03/07 00:17:59;;;;;;;30.25;16.50;;;-1.80;99.90;;;;;;5094931;28;20046;-83
2022/03/07 00:20:24;;;;;;;27.85;16.65;;;-1.70;99.90;;;;;;5061009;28;20278;-82
2022/03/07 00:22:50;;;;;;;31.80;19.05;;;-1.80;99.90;;;;;;5074634;28;20131;-83
2022/03/07 00:25:18;;;;;;;34.47;20.02;;;-1.80;99.90;;;;;;5068517;28;20551;-82
2022/03/07 00:27:43;;;;;;;30.08;18.65;;;-1.90;99.90;;;;;;5039067;28;20066;-87
2022/03/07 00:30:10;;;;;;;28.38;17.80;;;-1.90;99.90;;;;;;5057721;28;20751;-85
2022/03/07 00:32:35;;;;;;;32.88;18.55;;;-1.80;99.90;;;;;;5037942;28;20493;-84
2022/03/07 00:35:01;;;;;;;30.13;18.67;;;-1.90;99.90;;;;;;5044067;28;20083;-83
2022/03/07 00:37:27;;;;;;;27.33;17.33;;;-1.90;99.90;;;;;;5088415;28;20427;-83
2022/03/07 00:39:53;;;;;;;37.53;20.35;;;-1.90;99.90;;;;;;5042506;28;20037;-84
2022/03/07 00:42:18;;;;;;;32.55;20.13;;;-1.90;99.90;;;;;;5074513;28;20052;-83
2022/03/07 00:44:44;;;;;;;34.40;19.42;;;-2.00;99.90;;;;;;5038729;28;20401;-88
2022/03/07 00:47:10;;;;;;;36.65;20.80;;;-2.00;99.90;;;;;;5073305;28;20056;-83
2022/03/07 00:49:35;;;;;;;39.00;20.73;;;-2.00;99.90;;;;;;5061850;28;20048;-83
2022/03/07 00:52:01;;;;;;;29.55;19.45;;;-2.00;99.90;;;;;;5086249;28;20130;-82
2022/03/07 00:54:27;;;;;;;31.42;19.83;;;-2.10;99.90;;;;;;5090484;28;20036;-82
2022/03/07 00:56:52;;;;;;;32.30;19.17;;;-2.10;99.90;;;;;;5070240;28;20044;-82
2022/03/07 00:59:18;;;;;;;35.50;20.73;;;-2.20;99.90;;;;;;5085748;28;20101;-82
2022/03/07 01:01:44;;;;;;;32.75;19.15;;;-2.20;99.90;;;;;;5040424;28;20086;-85
2022/03/07 01:04:09;;;;;;;30.20;18.70;;;-2.20;99.90;;;;;;5090131;28;20047;-82
2022/03/07 01:06:35;;;;;;;34.35;20.77;;;-2.20;99.90;;;;;;5066746;28;20550;-83
2022/03/07 01:09:01;;;;;;;31.13;19.40;;;-2.20;99.90;;;;;;5054199;28;20074;-82
2022/03/07 01:11:26;;;;;;;30.88;18.83;;;-2.30;99.90;;;;;;5053986;28;20040;-83
2022/03/07 01:13:52;;;;;;;35.83;19.48;;;-2.30;99.90;;;;;;5052881;28;20045;-83
2022/03/07 01:16:18;;;;;;;31.55;18.85;;;-2.30;99.90;;;;;;5083831;28;20044;-83
2022/03/07 01:18:43;;;;;;;32.15;19.30;;;-2.30;99.90;;;;;;5090459;28;20045;-83
2022/03/07 01:21:09;;;;;;;29.45;18.85;;;-2.30;99.90;;;;;;5056771;28;20076;-82
2022/03/07 01:23:35;;;;;;;30.08;19.63;;;-2.30;99.90;;;;;;5040597;28;20048;-83
2022/03/07 01:26:02;;;;;;;32.90;17.25;;;-2.30;99.90;;;;;;5058051;28;20036;-83
2022/03/07 01:28:27;;;;;;;29.10;17.80;;;-2.30;99.90;;;;;;5060757;28;20097;-83
2022/03/07 01:30:53;;;;;;;25.40;15.88;;;-2.30;99.90;;;;;;5093265;28;20083;-83
2022/03/07 01:33:19;;;;;;;26.13;16.80;;;-2.40;99.90;;;;;;5076982;28;20044;-83
2022/03/07 01:35:45;;;;;;;26.73;16.70;;;-2.40;99.90;;;;;;5056792;28;20510;-84
2022/03/07 01:38:10;;;;;;;28.98;17.50;;;-2.40;99.90;;;;;;5501298;22;20066;-82
2022/03/07 01:40:36;;;;;;;29.35;16.08;;;-2.40;99.90;;;;;;4991453;28;20046;-82
2022/03/07 01:43:02;;;;;;;26.55;15.75;;;-2.50;99.90;;;;;;4968632;28;20046;-82
2022/03/07 01:45:28;;;;;;;28.25;16.33;;;-2.50;99.90;;;;;;4989563;28;20046;-82
2022/03/07 01:47:53;;;;;;;24.75;15.38;;;-2.50;99.90;;;;;;4985905;28;20038;-82
2022/03/07 01:50:20;;;;;;;31.90;15.27;;;-2.60;99.90;;;;;;4973917;28;20042;-81
2022/03/07 01:52:48;;;;;;;27.33;15.38;;;-2.60;99.90;;;;;;4984261;28;20047;-81
2022/03/07 01:55:15;;;;;;;24.92;14.93;;;-2.60;99.90;;;;;;4996490;28;20081;-81
2022/03/07 01:57:45;;;;;;;31.60;16.13;;;-2.60;99.90;;;;;;4998395;28;20074;-83
2022/03/07 02:00:14;;;;;;;27.85;15.43;;;-2.60;99.90;;;;;;4972580;28;20054;-83
2022/03/07 02:02:41;;;;;;;24.63;14.20;;;-2.60;99.90;;;;;;4989263;28;20061;-81
2022/03/07 02:05:08;;;;;;;28.70;15.50;;;-2.60;99.90;;;;;;4972955;28;20088;-82
2022/03/07 02:07:33;;;;;;;28.73;14.80;;;-2.60;99.90;;;;;;4958656;28;20038;-83
2022/03/07 02:10:00;;;;;;;25.52;15.32;;;-2.60;99.90;;;;;;4955563;28;20093;-85
2022/03/07 02:12:25;;;;;;;22.92;12.82;;;-2.70;99.90;;;;;;4988016;28;20117;-83
2022/03/07 02:14:51;;;;;;;23.25;14.00;;;-2.60;99.90;;;;;;4986648;28;20126;-88
2022/03/07 02:17:17;;;;;;;25.58;14.55;;;-2.60;99.90;;;;;;4974792;28;20103;-82
2022/03/07 02:19:42;;;;;;;28.83;14.02;;;-2.60;99.90;;;;;;4963736;28;20057;-85
2022/03/07 02:22:10;;;;;;;26.60;15.00;;;-2.60;99.90;;;;;;4974253;28;20761;-83
2022/03/07 02:24:37;;;;;;;24.48;13.95;;;-2.70;99.90;;;;;;4976127;28;20082;-83
2022/03/07 02:27:05;;;;;;;28.42;14.52;;;-2.70;99.90;;;;;;4986341;28;20085;-85
2022/03/07 02:29:33;;;;;;;26.65;14.23;;;-2.70;99.90;;;;;;4994326;28;20042;-82
2022/03/07 02:31:59;;;;;;;26.10;13.82;;;-2.80;99.90;;;;;;4974805;28;20047;-89
2022/03/07 02:34:25;;;;;;;28.65;15.57;;;-2.80;99.90;;;;;;4970220;28;20121;-86
2022/03/07 02:36:51;;;;;;;23.25;12.90;;;-2.80;99.90;;;;;;4977096;28;20038;-87
2022/03/07 02:39:17;;;;;;;25.88;13.00;;;-2.80;99.90;;;;;;4973056;28;20062;-84
2022/03/07 02:41:43;;;;;;;22.63;13.88;;;-2.90;99.90;;;;;;4979863;28;20089;-86
2022/03/07 02:44:09;;;;;;;26.25;14.20;;;-2.90;99.90;;;;;;4964803;28;20061;-83
2022/03/07 02:46:36;;;;;;;22.48;13.10;;;-2.90;99.90;;;;;;4987637;28;20050;-85
2022/03/07 02:49:03;;;;;;;21.80;12.85;;;-3.00;99.90;;;;;;4979331;28;20043;-84
2022/03/07 02:51:28;;;;;;;19.42;12.52;;;-3.00;99.90;;;;;;4991118;28;20074;-83
2022/03/07 02:53:54;;;;;;;21.63;13.68;;;-3.00;99.90;;;;;;4977716;28;20537;-85
2022/03/07 02:56:20;;;;;;;20.20;12.15;;;-3.00;99.90;;;;;;5000587;28;20124;-83
2022/03/07 02:58:46;;;;;;;20.20;12.18;;;-3.00;99.90;;;;;;4986445;28;20073;-83
2022/03/07 03:01:11;;;;;;;18.10;11.27;;;-3.00;99.90;;;;;;4969969;28;20171;-83
2022/03/07 03:03:37;;;;;;;18.20;9.68;;;-3.00;99.90;;;;;;4993944;28;20117;-83
2022/03/07 03:06:03;;;;;;;17.42;9.77;;;-3.10;99.90;;;;;;4990049;28;20133;-84
2022/03/07 03:08:29;;;;;;;21.27;11.52;;;-3.10;99.90;;;;;;4993441;28;20499;-83
2022/03/07 03:10:57;;;;;;;20.92;12.60;;;-3.10;99.90;;;;;;4973492;28;20068;-87
2022/03/07 03:13:23;;;;;;;21.90;12.52;;;-3.10;99.90;;;;;;4993375;28;20058;-83
2022/03/07 03:15:51;;;;;;;20.08;11.60;;;-3.10;99.90;;;;;;4975889;28;20051;-83
2022/03/07 03:18:18;;;;;;;19.52;12.40;;;-3.10;99.90;;;;;;4974202;28;20046;-84
2022/03/07 03:20:45;;;;;;;21.92;12.38;;;-3.10;99.90;;;;;;4975590;28;20042;-84
2022/03/07 03:23:11;;;;;;;22.58;12.50;;;-3.10;99.90;;;;;;4971617;28;20406;-83
2022/03/07 03:25:37;;;;;;;18.58;12.02;;;-3.10;99.90;;;;;;4979088;28;20394;-82
2022/03/07 03:28:03;;;;;;;23.23;12.32;;;-3.10;99.90;;;;;;4971040;28;20100;-83
2022/03/07 03:30:29;;;;;;;24.25;13.60;;;-3.10;99.90;;;;;;4991678;28;20061;-83
2022/03/07 03:32:55;;;;;;;25.70;14.27;;;-3.10;99.90;;;;;;4969845;28;20489;-88
2022/03/07 03:35:21;;;;;;;21.67;12.90;;;-3.10;99.90;;;;;;4973542;28;20043;-83
2022/03/07 03:37:47;;;;;;;23.17;13.40;;;-3.00;99.90;;;;;;4952850;28;20059;-82
2022/03/07 03:40:13;;;;;;;25.85;13.73;;;-3.10;99.90;;;;;;4973004;28;20047;-83
2022/03/07 03:42:39;;;;;;;23.08;13.60;;;-3.10;99.90;;;;;;4991882;28;20387;-83
2022/03/07 03:45:08;;;;;;;25.25;13.38;;;-3.20;99.90;;;;;;4991875;28;20050;-83
2022/03/07 03:47:34;;;;;;;24.08;13.75;;;-3.20;99.90;;;;;;4966293;28;20042;-84
2022/03/07 03:50:01;;;;;;;24.50;12.85;;;-3.30;99.90;;;;;;4991107;28;20056;-84
2022/03/07 03:52:26;;;;;;;26.30;13.73;;;-3.30;99.90;;;;;;4971767;28;20047;-84
2022/03/07 03:54:55;;;;;;;25.50;13.05;;;-3.30;99.90;;;;;;4996310;28;20034;-83
2022/03/07 03:57:21;;;;;;;24.52;13.63;;;-3.30;99.90;;;;;;4974546;28;20073;-84
2022/03/07 03:59:48;;;;;;;21.67;12.75;;;-3.30;99.90;;;;;;4969937;28;20050;-83
2022/03/07 04:02:13;;;;;;;24.30;12.82;;;-3.20;99.90;;;;;;4958605;28;20054;-84
2022/03/07 04:04:39;;;;;;;22.77;13.75;;;-3.30;99.90;;;;;;4960803;28;20037;-84
2022/03/07 04:07:05;;;;;;;25.00;14.32;;;-3.30;99.90;;;;;;4989877;28;20090;-86
2022/03/07 04:09:31;;;;;;;24.30;13.85;;;-3.20;99.90;;;;;;4979806;28;20042;-83
2022/03/07 04:11:56;;;;;;;24.20;14.32;;;-3.20;99.90;;;;;;4972125;28;20121;-84
2022/03/07 04:14:22;;;;;;;22.23;12.98;;;-3.20;99.90;;;;;;4978679;28;20046;-85
2022/03/07 04:16:48;;;;;;;20.17;12.43;;;-3.20;99.90;;;;;;4988834;28;20050;-84
2022/03/07 04:19:15;;;;;;;20.08;12.60;;;-3.30;99.90;;;;;;4989702;28;20043;-85
2022/03/07 04:21:42;;;;;;;23.20;12.30;;;-3.30;99.90;;;;;;4991261;28;20061;-83
2022/03/07 04:24:09;;;;;;;19.65;12.20;;;-3.40;99.90;;;;;;4991995;28;20069;-84
2022/03/07 04:26:36;;;;;;;24.80;13.27;;;-3.40;99.90;;;;;;5008371;28;20034;-85
2022/03/07 04:29:07;;;;;;;18.17;11.13;;;-3.40;99.90;;;;;;4987021;28;20499;-89
2022/03/07 04:31:43;;;;;;;24.40;11.52;;;-3.30;99.90;;;;;;4982546;28;20125;-84
2022/03/07 04:34:12;;;;;;;21.33;12.45;;;-3.20;99.90;;;;;;4973966;28;20046;-83
2022/03/07 04:36:39;;;;;;;21.40;12.13;;;-3.00;99.90;;;;;;4971548;28;20043;-84
2022/03/07 04:39:08;;;;;;;22.08;12.55;;;-3.10;99.90;;;;;;4986330;28;20058;-83
2022/03/07 04:41:34;;;;;;;21.38;12.27;;;-3.00;99.90;;;;;;4974200;28;20481;-84
2022/03/07 04:44:00;;;;;;;27.00;12.63;;;-2.90;99.90;;;;;;4977969;28;20043;-88
2022/03/07 04:46:27;;;;;;;22.60;12.85;;;-2.80;99.90;;;;;;4974947;28;20039;-84
2022/03/07 04:48:52;;;;;;;22.95;11.90;;;-2.80;99.90;;;;;;4991552;28;20034;-83
2022/03/07 04:51:18;;;;;;;20.65;12.00;;;-2.80;99.90;;;;;;4975392;28;20045;-85
2022/03/07 04:53:44;;;;;;;20.27;12.07;;;-2.90;99.90;;;;;;4969872;28;20121;-83
2022/03/07 04:56:10;;;;;;;20.85;11.65;;;-3.00;99.90;;;;;;4975457;28;20077;-83
2022/03/07 04:58:37;;;;;;;20.85;11.55;;;-3.00;99.90;;;;;;4975663;28;20038;-83
2022/03/07 05:01:03;;;;;;;21.05;11.23;;;-3.10;99.90;;;;;;4991911;28;20038;-87
2022/03/07 05:03:29;;;;;;;22.08;11.43;;;-3.10;99.90;;;;;;4975807;28;20042;-82
2022/03/07 05:05:54;;;;;;;22.25;11.30;;;-3.10;99.90;;;;;;4991392;28;20569;-83
2022/03/07 05:08:20;;;;;;;21.42;11.75;;;-3.00;99.90;;;;;;4968833;28;20093;-84
2022/03/07 05:10:46;;;;;;;20.23;11.90;;;-3.00;99.90;;;;;;4966444;28;20509;-83
2022/03/07 05:13:12;;;;;;;18.48;10.80;;;-3.00;99.90;;;;;;4991484;28;20042;-83
2022/03/07 05:15:38;;;;;;;29.08;13.15;;;-2.90;99.90;;;;;;4989514;28;20058;-85
2022/03/07 05:18:04;;;;;;;25.35;12.45;;;-2.90;99.90;;;;;;4973631;28;20076;-88
2022/03/07 05:20:30;;;;;;;23.25;11.80;;;-2.80;99.90;;;;;;4974926;28;20113;-84
2022/03/07 05:22:56;;;;;;;24.83;12.10;;;-2.80;99.90;;;;;;4972093;28;20455;-84
2022/03/07 05:25:22;;;;;;;26.17;12.23;;;-2.80;99.90;;;;;;4974890;28;20058;-83
2022/03/07 05:27:48;;;;;;;27.92;12.50;;;-2.80;99.90;;;;;;4990757;28;20375;-85
2022/03/07 05:30:21;;;;;;;19.77;11.43;;;-2.80;99.90;;;;;;4974544;28;20074;-83
2022/03/07 05:32:52;;;;;;;21.58;11.57;;;-2.80;99.90;;;;;;4991342;28;20061;-84
2022/03/07 05:35:19;;;;;;;21.45;11.73;;;-2.80;99.90;;;;;;4974823;28;20065;-83
2022/03/07 05:37:46;;;;;;;20.10;12.25;;;-2.80;99.90;;;;;;4976865;28;20108;-85
2022/03/07 05:40:13;;;;;;;25.88;12.00;;;-2.80;99.90;;;;;;4974909;28;20058;-83
2022/03/07 05:42:39;;;;;;;26.58;13.05;;;-2.70;99.90;;;;;;4961702;28;20054;-86
2022/03/07 05:45:07;;;;;;;26.27;13.15;;;-2.70;99.90;;;;;;4950914;28;20053;-89
2022/03/07 05:47:33;;;;;;;21.92;12.80;;;-2.70;99.90;;;;;;4986742;28;20384;-83
2022/03/07 05:49:59;;;;;;;23.50;12.52;;;-2.70;99.90;;;;;;4959537;28;20049;-84
2022/03/07 05:52:25;;;;;;;22.35;13.18;;;-2.70;99.90;;;;;;5004540;28;20337;-83
2022/03/07 05:54:50;;;;;;;22.50;11.63;;;-2.80;99.90;;;;;;4989881;28;20566;-83
2022/03/07 05:57:16;;;;;;;23.38;12.65;;;-2.80;99.90;;;;;;4985824;28;20181;-84
2022/03/07 05:59:42;;;;;;;19.50;11.32;;;-2.80;99.90;;;;;;4975712;28;20503;-83
2022/03/07 06:02:08;;;;;;;21.45;12.93;;;-2.70;99.90;;;;;;4990344;28;20053;-83
2022/03/07 06:04:33;;;;;;;18.67;11.40;;;-2.60;99.90;;;;;;4979257;28;20050;-83
2022/03/07 06:06:59;;;;;;;22.88;12.32;;;-2.60;99.90;;;;;;4977876;28;20038;-84
2022/03/07 06:09:25;;;;;;;20.52;11.77;;;-2.50;99.90;;;;;;4984834;28;20077;-83
2022/03/07 06:11:51;;;;;;;22.17;12.52;;;-2.40;99.90;;;;;;4979219;28;20049;-84
2022/03/07 06:14:17;;;;;;;22.00;13.00;;;-2.30;99.90;;;;;;4979597;28;20053;-84
2022/03/07 06:16:42;;;;;;;23.65;13.73;;;-2.20;99.90;;;;;;4969452;28;20045;-84
2022/03/07 06:19:08;;;;;;;24.48;12.43;;;-2.10;99.90;;;;;;4978563;28;20050;-83
2022/03/07 06:21:35;;;;;;;21.98;12.35;;;-2.10;99.90;;;;;;4995617;28;20037;-83
2022/03/07 06:24:00;;;;;;;22.92;11.73;;;-2.00;99.90;;;;;;4992066;28;20064;-82
2022/03/07 06:26:26;;;;;;;20.42;11.80;;;-1.90;99.90;;;;;;4975511;28;20126;-85
2022/03/07 06:28:52;;;;;;;23.95;12.68;;;-1.90;99.90;;;;;;4976063;28;20042;-85
2022/03/07 06:31:19;;;;;;;19.05;12.18;;;-1.90;99.90;;;;;;4961400;28;20054;-84
2022/03/07 06:33:44;;;;;;;18.45;13.02;;;-1.90;99.90;;;;;;4972349;28;20057;-87
2022/03/07 06:36:10;;;;;;;20.27;12.02;;;-2.00;99.90;;;;;;4977951;28;20129;-88
2022/03/07 06:38:37;;;;;;;25.77;12.23;;;-2.00;99.90;;;;;;4994230;28;20562;-84
2022/03/07 06:41:04;;;;;;;20.80;11.40;;;-2.10;99.90;;;;;;4993326;28;20483;-85
2022/03/07 06:43:30;;;;;;;21.80;11.88;;;-2.10;99.90;;;;;;4953673;28;20049;-85
2022/03/07 06:45:55;;;;;;;20.52;11.38;;;-2.20;99.90;;;;;;4944625;28;20042;-83
2022/03/07 06:48:21;;;;;;;20.70;12.20;;;-2.20;99.90;;;;;;4966603;28;20069;-83
2022/03/07 06:50:47;;;;;;;21.00;11.65;;;-2.20;99.90;;;;;;4990612;28;20034;-84
2022/03/07 06:53:13;;;;;;;20.13;12.45;;;-2.20;99.90;;;;;;4965642;28;20094;-83
2022/03/07 06:55:39;;;;;;;23.48;11.88;;;-2.20;99.90;;;;;;4989774;28;20241;-87
2022/03/07 06:58:05;;;;;;;19.30;11.65;;;-2.20;99.90;;;;;;4959888;28;20125;-85
2022/03/07 07:00:31;;;;;;;24.50;12.65;;;-2.20;99.90;;;;;;4976665;28;20042;-84
2022/03/07 07:02:57;;;;;;;25.33;12.85;;;-2.20;99.90;;;;;;4977969;28;20675;-83
2022/03/07 07:05:23;;;;;;;25.25;13.82;;;-2.20;99.90;;;;;;4977737;28;20042;-83
2022/03/07 07:07:49;;;;;;;29.10;14.43;;;-2.20;99.90;;;;;;4977881;28;20045;-84
2022/03/07 07:10:18;;;;;;;26.55;13.95;;;-2.10;99.90;;;;;;4992820;28;20051;-84
2022/03/07 07:12:45;;;;;;;25.48;13.63;;;-2.00;99.90;;;;;;4976136;28;20039;-83
2022/03/07 07:15:11;;;;;;;26.35;14.35;;;-2.00;99.90;;;;;;4977504;28;20046;-87
2022/03/07 07:17:37;;;;;;;31.05;15.20;;;-2.00;99.90;;;;;;4976856;28;20376;-86
2022/03/07 07:20:04;;;;;;;25.83;14.02;;;-2.00;99.90;;;;;;4975665;28;20476;-83
2022/03/07 07:22:29;;;;;;;25.13;13.90;;;-2.00;99.90;;;;;;4992522;28;20129;-83
2022/03/07 07:24:55;;;;;;;27.38;13.90;;;-2.00;99.90;;;;;;4977699;28;20133;-83
2022/03/07 07:27:21;;;;;;;30.33;14.30;;;-2.00;99.90;;;;;;4976239;28;20057;-83
2022/03/07 07:29:47;;;;;;;30.67;14.48;;;-2.00;99.90;;;;;;4976126;28;20047;-84
2022/03/07 07:32:12;;;;;;;27.75;14.75;;;-1.90;99.90;;;;;;4977427;28;20053;-87
2022/03/07 07:34:38;;;;;;;31.33;14.75;;;-1.90;99.90;;;;;;4957363;28;20078;-84
2022/03/07 07:37:04;;;;;;;30.40;14.55;;;-2.00;99.90;;;;;;4964763;28;20034;-83
2022/03/07 07:39:29;;;;;;;28.42;16.95;;;-2.00;99.90;;;;;;4992081;28;20050;-83
2022/03/07 07:41:56;;;;;;;40.38;17.05;;;-2.00;99.90;;;;;;5007084;28;20068;-85
2022/03/07 07:44:22;;;;;;;35.40;17.73;;;-1.90;99.90;;;;;;4972187;28;20074;-84
2022/03/07 07:46:48;;;;;;;34.92;19.08;;;-1.90;99.90;;;;;;4974391;28;20072;-84
2022/03/07 07:49:14;;;;;;;38.28;18.42;;;-1.70;99.90;;;;;;4976867;28;20046;-87
2022/03/07 07:51:41;;;;;;;35.13;18.00;;;-1.60;99.90;;;;;;4960105;28;20057;-84
2022/03/07 07:54:06;;;;;;;36.13;19.90;;;-1.50;99.90;;;;;;4976201;28;20088;-84
2022/03/07 07:56:32;;;;;;;33.97;17.85;;;-1.40;99.90;;;;;;4967943;28;20565;-83
2022/03/07 07:58:58;;;;;;;33.50;18.83;;;-1.20;99.90;;;;;;4989026;28;20507;-85
2022/03/07 08:01:24;;;;;;;38.50;18.98;;;-1.10;99.90;;;;;;4991814;28;20176;-86
2022/03/07 08:03:49;;;;;;;35.08;19.52;;;-1.00;99.90;;;;;;4975745;28;20704;-84
2022/03/07 08:06:15;;;;;;;38.90;21.00;;;-0.90;99.90;;;;;;4971592;28;20084;-87
2022/03/07 08:08:41;;;;;;;37.83;19.48;;;-0.80;99.90;;;;;;4976416;28;20046;-84
2022/03/07 08:11:06;;;;;;;41.88;22.67;;;-0.70;99.90;;;;;;4976316;28;20049;-83
2022/03/07 08:13:32;;;;;;;37.25;23.33;;;-0.50;99.90;;;;;;4992500;28;20116;-86
2022/03/07 08:15:58;;;;;;;38.17;22.33;;;-0.30;99.90;;;;;;4990251;28;20053;-85
2022/03/07 08:18:24;;;;;;;34.28;20.63;;;-0.20;99.90;;;;;;4992301;28;20046;-84
2022/03/07 08:20:50;;;;;;;31.25;18.08;;;-0.10;99.90;;;;;;4990121;28;20057;-85
2022/03/07 08:23:16;;;;;;;33.15;19.80;;;0.00;99.90;;;;;;4975348;28;20084;-86
2022/03/07 08:25:42;;;;;;;34.90;19.65;;;0.10;99.90;;;;;;4959403;28;20085;-83
2022/03/07 08:28:07;;;;;;;33.75;20.50;;;0.30;99.90;;;;;;4972008;28;20053;-84
2022/03/07 08:30:34;;;;;;;34.10;18.00;;;0.50;99.90;;;;;;5000908;28;20039;-84
2022/03/07 08:33:00;;;;;;;31.95;17.52;;;0.60;99.90;;;;;;4971804;28;20042;-86
2022/03/07 08:35:26;;;;;;;30.15;17.10;;;0.60;99.90;;;;;;4948077;28;20046;-84
2022/03/07 08:37:53;;;;;;;31.60;17.23;;;0.70;99.90;;;;;;4991866;28;20049;-83
2022/03/07 08:40:21;;;;;;;25.42;14.20;;;0.90;99.90;;;;;;4991935;28;20057;-86
2022/03/07 08:42:47;;;;;;;25.17;13.77;;;1.10;99.90;;;;;;4986502;28;20122;-84
2022/03/07 08:45:13;;;;;;;25.35;13.32;;;1.10;99.90;;;;;;4944757;28;20129;-84
2022/03/07 08:47:40;;;;;;;23.90;13.23;;;1.20;99.90;;;;;;4948100;28;20030;-85
2022/03/07 08:50:09;;;;;;;23.60;12.88;;;1.30;99.90;;;;;;4989815;28;20495;-86
2022/03/07 08:52:36;;;;;;;19.75;11.65;;;1.50;99.90;;;;;;4987407;28;20053;-85
2022/03/07 08:55:06;;;;;;;16.98;10.50;;;1.60;99.90;;;;;;4988053;28;20034;-85
2022/03/07 08:57:32;;;;;;;15.88;9.32;;;1.70;99.90;;;;;;4946620;28;20042;-86
2022/03/07 08:59:58;;;;;;;18.10;10.57;;;1.80;99.90;;;;;;4963288;28;20050;-87
2022/03/07 09:02:23;;;;;;;15.15;8.00;;;1.80;99.90;;;;;;4981105;28;20112;-85
2022/03/07 09:04:49;;;;;;;18.13;9.88;;;1.90;99.90;;;;;;4989082;28;20050;-85
2022/03/07 09:07:15;;;;;;;12.95;8.23;;;2.00;99.90;;;;;;4974449;28;20062;-85
2022/03/07 09:09:41;;;;;;;15.45;8.50;;;2.10;99.90;;;;;;4993307;28;20395;-85
2022/03/07 09:12:10;;;;;;;14.48;6.30;;;2.20;99.90;;;;;;5001740;28;20069;-84
2022/03/07 09:14:35;;;;;;;10.93;7.80;;;2.30;99.90;;;;;;4978553;28;20459;-86
2022/03/07 09:17:01;;;;;;;15.52;8.00;;;2.50;99.90;;;;;;5005650;28;20125;-85
2022/03/07 09:19:28;;;;;;;13.35;7.22;;;2.50;99.90;;;;;;4973911;28;20049;-85
2022/03/07 09:21:54;;;;;;;10.82;5.57;;;2.60;99.90;;;;;;4950439;28;20094;-84
2022/03/07 09:24:20;;;;;;;10.82;5.95;;;2.70;99.90;;;;;;4988734;28;20046;-88
2022/03/07 09:26:46;;;;;;;14.18;6.57;;;2.80;99.90;;;;;;4942709;28;20105;-86
2022/03/07 09:29:12;;;;;;;16.58;7.90;;;2.80;99.90;;;;;;4973517;28;20443;-85
2022/03/07 09:31:38;;;;;;;14.40;8.38;;;3.00;99.90;;;;;;4958842;28;20054;-86
2022/03/07 09:34:04;;;;;;;15.52;8.02;;;3.00;99.90;;;;;;4974230;28;20125;-85
2022/03/07 09:36:30;;;;;;;14.70;7.90;;;3.00;99.90;;;;;;4974608;28;20030;-84
2022/03/07 09:38:56;;;;;;;14.52;7.55;;;3.10;99.90;;;;;;4990780;28;20081;-84
2022/03/07 09:41:21;;;;;;;13.85;7.35;;;3.20;99.90;;;;;;4974523;28;20478;-90
2022/03/07 09:43:47;;;;;;;14.52;7.32;;;3.20;99.90;;;;;;4971271;28;20046;-85
2022/03/07 09:46:15;;;;;;;11.57;6.70;;;3.30;99.90;;;;;;4988935;28;20388;-86
2022/03/07 09:48:42;;;;;;;13.93;7.38;;;3.60;99.90;;;;;;4965887;28;20125;-87
2022/03/07 09:51:09;;;;;;;13.52;6.32;;;3.90;99.90;;;;;;4963514;28;20041;-85
2022/03/07 09:53:34;;;;;;;9.52;5.80;;;4.10;99.90;;;;;;4974004;28;20035;-85
2022/03/07 09:56:00;;;;;;;12.75;5.60;;;4.30;99.90;;;;;;4975014;28;20041;-86
2022/03/07 09:58:26;;;;;;;7.18;3.53;;;4.40;99.90;;;;;;4964045;28;20051;-85
2022/03/07 10:00:52;;;;;;;10.88;4.32;;;4.50;99.90;;;;;;4955671;28;20137;-84
2022/03/07 10:03:18;;;;;;;7.95;4.43;;;4.70;99.90;;;;;;4955488;28;20586;-84
2022/03/07 10:05:48;;;;;;;9.82;4.20;;;4.70;99.90;;;;;;4971286;28;20054;-86
2022/03/07 10:08:24;;;;;;;9.98;3.95;;;4.80;99.90;;;;;;5000534;28;20129;-84
2022/03/07 10:10:52;;;;;;;9.18;4.25;;;5.00;99.90;;;;;;4975261;28;20097;-84
2022/03/07 10:13:17;;;;;;;9.20;3.55;;;5.30;99.90;;;;;;4975233;28;20511;-84
2022/03/07 10:15:43;;;;;;;7.22;3.60;;;5.80;99.90;;;;;;4974670;28;20046;-84
2022/03/07 10:18:16;;;;;;;7.10;3.33;;;6.40;99.90;;;;;;4974663;28;20468;-86
2022/03/07 10:20:54;;;;;;;7.65;3.08;;;6.60;99.90;;;;;;4972736;28;20053;-85
2022/03/07 10:23:21;;;;;;;8.48;3.95;;;6.60;99.90;;;;;;4989741;28;20042;-86
2022/03/07 10:25:47;;;;;;;6.28;3.78;;;6.50;99.90;;;;;;4970722;28;20046;-86
2022/03/07 10:28:13;;;;;;;7.85;3.50;;;6.60;99.90;;;;;;4988624;28;20503;-84
2022/03/07 10:30:40;;;;;;;6.38;3.90;;;6.90;99.90;;;;;;4970734;28;20057;-85
2022/03/07 10:33:09;;;;;;;9.27;4.03;;;7.30;99.90;;;;;;4966262;28;20042;-85
2022/03/07 10:35:43;;;;;;;4.85;2.97;;;7.50;99.90;;;;;;4990737;28;20384;-85
2022/03/07 10:38:13;;;;;;;6.68;3.00;;;7.60;99.90;;;;;;4974589;28;20197;-84
2022/03/07 10:40:47;;;;;;;11.30;3.45;;;7.70;99.90;;;;;;4990644;28;20046;-86
2022/03/07 10:43:15;;;;;;;7.18;3.33;;;8.00;99.70;;;;;;4974429;28;20510;-84
2022/03/07 10:45:52;;;;;;;11.90;3.65;;;8.10;99.30;;;;;;4973893;28;20109;-87
2022/03/07 10:48:20;;;;;;;5.95;3.13;;;8.20;98.50;;;;;;4977506;28;20360;-85
2022/03/07 10:50:48;;;;;;;7.60;2.92;;;8.20;97.00;;;;;;4974173;28;20050;-85
2022/03/07 10:53:14;;;;;;;4.57;2.40;;;8.10;96.10;;;;;;4959252;28;20388;-85
2022/03/07 10:55:40;;;;;;;5.57;2.38;;;7.70;95.50;;;;;;4975254;28;20583;-86
2022/03/07 10:58:10;;;;;;;7.10;2.50;;;7.40;95.80;;;;;;4990881;28;20182;-85
2022/03/07 11:00:53;;;;;;;5.50;2.70;;;7.10;96.20;;;;;;4993559;28;20133;-86
2022/03/07 11:03:23;;;;;;;6.72;2.92;;;6.90;95.90;;;;;;5005223;28;20093;-87
2022/03/07 11:05:53;;;;;;;5.57;2.45;;;6.80;97.20;;;;;;4993739;28;20085;-85
2022/03/07 11:08:22;;;;;;;5.75;2.50;;;6.90;97.20;;;;;;4994091;28;20057;-87
2022/03/07 11:10:54;;;;;;;3.13;2.47;;;7.10;96.10;;;;;;4992274;28;20083;-86
2022/03/07 11:13:38;;;;;;;10.73;3.15;;;7.40;94.70;;;;;;4996232;28;20031;-86
2022/03/07 11:16:13;;;;;;;7.18;2.95;;;7.60;93.70;;;;;;4976010;28;20053;-85
2022/03/07 11:18:40;;;;;;;10.32;2.80;;;7.70;94.40;;;;;;4958098;28;20054;-87
2022/03/07 11:21:06;;;;;;;4.80;2.78;;;8.00;94.30;;;;;;5001235;28;20046;-85
2022/03/07 11:23:32;;;;;;;5.97;2.78;;;8.40;93.60;;;;;;4988801;28;20061;-86
2022/03/07 11:25:59;;;;;;;6.47;2.42;;;8.80;93.00;;;;;;4987275;28;20046;-86
2022/03/07 11:28:28;;;;;;;6.57;2.60;;;9.30;92.00;;;;;;4975272;28;20116;-85
2022/03/07 11:30:56;;;;;;;5.05;1.90;;;9.60;90.70;;;;;;4975747;28;20136;-85
2022/03/07 11:33:34;;;;;;;2.70;1.67;;;9.70;87.30;;;;;;4982389;28;20155;-85
2022/03/07 11:36:04;;;;;;;3.80;1.33;;;9.70;86.30;;;;;;4992895;28;20388;-85
2022/03/07 11:38:35;;;;;;;4.57;1.98;;;9.80;83.90;;;;;;4991383;28;20057;-86
2022/03/07 11:41:04;;;;;;;3.55;1.85;;;9.70;82.70;;;;;;4985924;28;20065;-87
2022/03/07 11:43:32;;;;;;;4.40;1.90;;;9.80;81.80;;;;;;4992982;28;20042;-91
2022/03/07 11:46:01;;;;;;;4.40;1.88;;;9.80;81.70;;;;;;4977234;28;20375;-85
2022/03/07 11:48:31;;;;;;;6.10;2.30;;;9.90;79.90;;;;;;4993513;28;20081;-85
2022/03/07 11:50:57;;;;;;;2.80;1.63;;;10.00;77.50;;;;;;5007547;28;20044;-85
2022/03/07 11:53:25;;;;;;;3.22;1.73;;;9.90;77.30;;;;;;4990374;28;20041;-85
2022/03/07 11:55:52;;;;;;;4.45;2.20;;;10.00;75.40;;;;;;4985273;28;20060;-84
2022/03/07 11:58:29;;;;;;;3.15;1.77;;;10.20;75.10;;;;;;4992086;28;20034;-85
2022/03/07 12:01:26;;;;;;;8.90;3.20;;;10.40;71.80;;;;;;4989594;28;20138;-88
2022/03/07 12:03:53;;;;;;;3.38;1.70;;;10.50;70.70;;;;;;4958372;28;20086;-85
2022/03/07 12:06:20;;;;;;;5.05;2.17;;;10.60;71.00;;;;;;4941481;28;20796;-85
2022/03/07 12:08:49;;;;;;;4.20;2.00;;;10.80;71.30;;;;;;4971229;28;20049;-85
2022/03/07 12:11:32;;;;;;;2.72;1.52;;;10.90;69.70;;;;;;4975990;28;20125;-85
2022/03/07 12:14:04;;;;;;;2.60;1.45;;;10.90;67.40;;;;;;4992315;28;20038;-85
2022/03/07 12:16:43;;;;;;;2.70;1.08;;;10.80;68.50;;;;;;4992577;28;20643;-85
2022/03/07 12:19:12;;;;;;;4.38;2.03;;;10.60;66.70;;;;;;4991387;28;20181;-84
2022/03/07 12:21:41;;;;;;;3.03;1.77;;;10.60;66.70;;;;;;4990111;28;20038;-85
2022/03/07 12:24:08;;;;;;;4.53;2.13;;;10.80;68.20;;;;;;4972117;28;20129;-84
2022/03/07 12:26:46;;;;;;;4.78;2.55;;;10.90;66.40;;;;;;4992067;28;20046;-85
2022/03/07 12:29:14;;;;;;;4.72;2.70;;;10.80;63.80;;;;;;4982537;28;20050;-86
2022/03/07 12:31:58;;;;;;;3.42;1.88;;;10.70;65.00;;;;;;4976653;28;20376;-84